createdAt,value
2018-12-19T00:00:54.680Z,1.10
2018-12-19T00:03:22.270Z,1.00
2018-12-19T00:05:49.785Z,1.20
2018-12-19T00:08:17.341Z,1.00
2018-12-19T00:10:44.855Z,1.10
2018-12-19T00:13:14.629Z,1.00
2018-12-19T00:15:42.214Z,1.00
2018-12-19T00:18:09.727Z,1.00
2018-12-19T00:20:37.241Z,1.10
2018-12-19T00:23:04.795Z,1.10
2018-12-19T00:25:32.353Z,1.10
2018-12-19T00:27:59.938Z,1.20
2018-12-19T00:30:27.454Z,1.40
2018-12-19T00:32:54.992Z,1.30
2018-12-19T00:35:22.518Z,1.60
2018-12-19T00:37:50.069Z,1.70
2018-12-19T00:40:17.601Z,1.50
2018-12-19T00:42:45.263Z,1.30
2018-12-19T00:45:12.779Z,1.20
2018-12-19T00:47:40.290Z,1.20
2018-12-19T00:50:07.833Z,1.30
2018-12-19T00:52:35.391Z,1.50
2018-12-19T00:55:03.372Z,1.50
2018-12-19T00:57:30.918Z,1.50
2018-12-19T00:59:58.464Z,1.70
2018-12-19T01:02:25.966Z,1.90
2018-12-19T01:04:58.613Z,1.90
2018-12-19T01:07:26.149Z,1.80
2018-12-19T01:09:53.696Z,1.90
2018-12-19T01:12:21.206Z,1.90
2018-12-19T01:14:53.064Z,2.10
2018-12-19T01:17:20.702Z,2.10
2018-12-19T01:19:48.255Z,2.00
2018-12-19T01:22:15.763Z,2.00
2018-12-19T01:24:43.543Z,2.10
2018-12-19T01:27:11.090Z,2.20
2018-12-19T01:29:38.614Z,2.30
2018-12-19T01:32:06.172Z,2.20
2018-12-19T01:34:33.684Z,2.30
2018-12-19T01:37:01.234Z,2.20
2018-12-19T01:39:28.742Z,2.20
2018-12-19T01:41:56.302Z,2.40
2018-12-19T01:44:23.835Z,2.40
2018-12-19T01:46:51.373Z,2.30
2018-12-19T01:52:01.766Z,2.50
2018-12-19T01:54:29.291Z,2.50
2018-12-19T01:56:57.101Z,2.40
2018-12-19T01:59:24.650Z,2.30
2018-12-19T02:01:52.585Z,2.30
2018-12-19T02:04:20.198Z,2.30
2018-12-19T02:06:47.735Z,2.50
2018-12-19T02:09:15.246Z,2.40
2018-12-19T02:11:42.789Z,2.50
2018-12-19T02:14:10.308Z,2.40
2018-12-19T02:16:38.700Z,2.30
2018-12-19T02:19:06.290Z,2.20
2018-12-19T02:21:33.853Z,2.20
2018-12-19T02:24:03.915Z,2.20
2018-12-19T02:26:31.678Z,2.30
2018-12-19T02:29:00.469Z,2.30
2018-12-19T02:31:30.469Z,2.30
2018-12-19T02:33:58.321Z,2.20
2018-12-19T02:36:25.893Z,2.30
2018-12-19T02:38:54.763Z,2.40
2018-12-19T02:41:22.262Z,2.60
2018-12-19T02:43:50.081Z,2.50
2018-12-19T02:46:17.836Z,2.40
2018-12-19T02:48:45.367Z,2.50
2018-12-19T02:51:13.186Z,2.70
2018-12-19T02:53:40.685Z,2.60
2018-12-19T02:56:09.376Z,2.50
2018-12-19T02:58:36.890Z,2.40
2018-12-19T03:01:04.742Z,2.30
2018-12-19T03:03:36.026Z,2.30
2018-12-19T03:06:03.656Z,2.30
2018-12-19T03:08:31.190Z,2.50
2018-12-19T03:10:59.397Z,2.60
2018-12-19T03:13:27.411Z,2.60
2018-12-19T03:15:54.966Z,2.60
2018-12-19T03:18:22.470Z,2.60
2018-12-19T03:20:50.003Z,2.50
2018-12-19T03:23:17.505Z,2.60
2018-12-19T03:25:45.053Z,2.60
2018-12-19T03:28:12.877Z,2.70
2018-12-19T03:30:40.417Z,2.60
2018-12-19T03:33:07.917Z,2.50
2018-12-19T03:35:35.450Z,2.60
2018-12-19T03:38:03.019Z,2.50
2018-12-19T03:40:30.698Z,2.60
2018-12-19T03:42:58.231Z,2.50
2018-12-19T03:45:25.735Z,2.50
2018-12-19T03:47:53.281Z,2.60
2018-12-19T03:50:20.776Z,2.60
2018-12-19T03:52:48.333Z,2.70
2018-12-19T03:55:15.833Z,2.70
2018-12-19T03:57:43.545Z,2.70
2018-12-19T04:00:11.041Z,2.60
2018-12-19T04:02:38.576Z,2.70
2018-12-19T04:05:06.221Z,2.70
2018-12-19T04:07:33.760Z,2.80
2018-12-19T04:10:01.277Z,2.90
2018-12-19T04:12:28.825Z,2.80
2018-12-19T04:14:56.335Z,2.80
2018-12-19T04:17:23.877Z,2.80
2018-12-19T04:19:51.377Z,3.00
2018-12-19T04:22:18.982Z,3.00
2018-12-19T04:24:46.485Z,2.90
2018-12-19T04:27:14.034Z,2.90
2018-12-19T04:29:41.901Z,3.00
2018-12-19T04:32:09.433Z,2.90
2018-12-19T04:34:36.969Z,2.90
2018-12-19T04:37:04.610Z,3.00
2018-12-19T04:39:32.108Z,2.90
2018-12-19T04:41:59.611Z,3.00
2018-12-19T04:44:27.160Z,3.10
2018-12-19T04:46:54.701Z,2.90
2018-12-19T04:49:22.261Z,3.00
2018-12-19T04:51:49.770Z,3.00
2018-12-19T04:54:17.324Z,2.90
2018-12-19T04:56:44.823Z,3.10
2018-12-19T04:59:12.367Z,3.00
2018-12-19T05:01:39.877Z,3.10
2018-12-19T05:04:07.509Z,3.10
2018-12-19T05:06:35.008Z,3.10
2018-12-19T05:09:02.631Z,3.10
2018-12-19T05:11:30.315Z,3.00
2018-12-19T05:13:57.856Z,3.00
2018-12-19T05:16:25.353Z,3.00
2018-12-19T05:18:53.114Z,3.10
2018-12-19T05:21:20.610Z,3.10
2018-12-19T05:23:48.160Z,3.20
2018-12-19T05:26:15.670Z,3.20
2018-12-19T05:28:43.217Z,3.10
2018-12-19T05:31:10.721Z,3.00
2018-12-19T05:33:38.449Z,3.00
2018-12-19T05:36:12.842Z,3.10
2018-12-19T05:38:40.361Z,3.20
2018-12-19T05:41:07.927Z,3.30
2018-12-19T05:43:35.430Z,3.30
2018-12-19T05:46:03.221Z,3.20
2018-12-19T05:48:30.716Z,3.20
2018-12-19T05:50:58.262Z,3.20
2018-12-19T05:53:25.765Z,3.30
2018-12-19T05:55:53.301Z,3.40
2018-12-19T05:58:20.805Z,3.40
2018-12-19T06:00:48.353Z,3.40
2018-12-19T06:03:15.895Z,3.40
2018-12-19T06:05:43.409Z,3.40
2018-12-19T06:08:10.953Z,3.40
2018-12-19T06:10:38.489Z,3.40
2018-12-19T06:13:06.034Z,3.30
2018-12-19T06:15:33.629Z,3.20
2018-12-19T06:18:01.158Z,3.20
2018-12-19T06:20:28.704Z,3.20
2018-12-19T06:22:56.242Z,3.20
2018-12-19T06:25:23.766Z,3.20
2018-12-19T06:27:51.441Z,3.00
2018-12-19T06:30:19.053Z,3.00
2018-12-19T06:32:46.598Z,3.00
2018-12-19T06:35:14.158Z,3.10
2018-12-19T06:37:41.666Z,3.10
2018-12-19T06:40:09.310Z,3.00
2018-12-19T06:42:36.848Z,3.20
2018-12-19T06:45:05.896Z,3.10
2018-12-19T06:47:33.439Z,3.10
2018-12-19T06:50:00.942Z,3.00
2018-12-19T06:52:28.998Z,3.20
2018-12-19T06:54:56.502Z,3.20
2018-12-19T06:57:24.125Z,3.20
2018-12-19T06:59:51.666Z,3.20
2018-12-19T07:02:19.733Z,3.20
2018-12-19T07:04:47.377Z,3.10
2018-12-19T07:07:14.913Z,3.20
2018-12-19T07:09:42.418Z,3.30
2018-12-19T07:12:09.941Z,3.20
2018-12-19T07:14:39.770Z,3.20
2018-12-19T07:17:07.293Z,3.30
2018-12-19T07:19:34.838Z,3.20
2018-12-19T07:22:02.381Z,3.10
2018-12-19T07:24:29.882Z,3.30
2018-12-19T07:26:57.453Z,3.20
2018-12-19T07:29:24.967Z,3.10
2018-12-19T07:31:52.508Z,3.00
2018-12-19T07:34:20.019Z,2.90
2018-12-19T07:36:47.562Z,2.90
2018-12-19T07:39:15.073Z,2.90
2018-12-19T07:41:42.615Z,2.90
2018-12-19T07:44:10.115Z,3.00
2018-12-19T07:46:37.681Z,3.10
2018-12-19T07:49:05.233Z,3.10
2018-12-19T07:51:33.017Z,3.20
2018-12-19T07:54:00.518Z,3.20
2018-12-19T07:56:29.152Z,3.20
2018-12-19T07:58:56.670Z,3.20
2018-12-19T08:01:24.214Z,3.40
2018-12-19T08:03:51.723Z,3.40
2018-12-19T08:06:19.260Z,3.30
2018-12-19T08:08:46.761Z,3.30
2018-12-19T08:11:14.329Z,3.20
2018-12-19T08:13:41.829Z,3.20
2018-12-19T08:16:09.368Z,3.20
2018-12-19T08:18:36.869Z,3.20
2018-12-19T08:21:04.422Z,3.30
2018-12-19T08:23:31.922Z,3.30
2018-12-19T08:25:59.477Z,3.30
2018-12-19T08:28:27.017Z,3.30
2018-12-19T08:30:54.559Z,3.40
2018-12-19T08:33:22.396Z,3.50
2018-12-19T08:35:49.989Z,3.50
2018-12-19T08:38:17.528Z,3.60
2018-12-19T08:40:45.044Z,3.60
2018-12-19T08:43:12.585Z,3.60
2018-12-19T08:45:40.463Z,3.60
2018-12-19T08:48:08.012Z,3.60
2018-12-19T08:50:35.509Z,3.70
2018-12-19T08:53:03.116Z,3.70
2018-12-19T08:55:30.649Z,3.60
2018-12-19T08:57:58.188Z,3.60
2018-12-19T09:00:25.737Z,3.60
2018-12-19T09:02:53.251Z,3.60
2018-12-19T09:05:20.796Z,3.60
2018-12-19T09:07:48.294Z,3.60
2018-12-19T09:10:15.845Z,3.50
2018-12-19T09:12:43.349Z,3.50
2018-12-19T09:15:10.916Z,3.70
2018-12-19T09:17:38.422Z,3.70
2018-12-19T09:20:06.706Z,3.60
2018-12-19T09:22:34.244Z,3.70
2018-12-19T09:25:01.784Z,3.70
2018-12-19T09:27:29.334Z,3.80
2018-12-19T09:29:56.873Z,3.80
2018-12-19T09:32:24.381Z,3.80
2018-12-19T09:34:51.933Z,3.80
2018-12-19T09:37:19.505Z,3.80
2018-12-19T09:39:47.073Z,4.00
2018-12-19T09:42:14.853Z,3.90
2018-12-19T09:44:42.394Z,3.90
2018-12-19T09:47:09.894Z,4.00
2018-12-19T09:49:37.445Z,4.00
2018-12-19T09:52:05.017Z,4.10
2018-12-19T09:54:32.524Z,4.10
2018-12-19T09:57:00.057Z,4.00
2018-12-19T09:59:27.557Z,3.90
2018-12-19T10:01:55.573Z,4.00
2018-12-19T10:04:23.073Z,3.90
2018-12-19T10:06:50.614Z,4.00
2018-12-19T10:09:18.118Z,4.10
2018-12-19T10:11:45.657Z,4.00
2018-12-19T10:14:13.152Z,4.10
2018-12-19T10:16:40.653Z,4.10
2018-12-19T10:19:08.204Z,4.10
2018-12-19T10:21:35.749Z,4.20
2018-12-19T10:24:03.244Z,4.30
2018-12-19T10:26:30.786Z,4.40
2018-12-19T10:28:58.283Z,4.30
2018-12-19T10:31:25.893Z,4.40
2018-12-19T10:33:53.397Z,4.60
2018-12-19T10:36:22.880Z,4.60
2018-12-19T10:38:50.412Z,4.50
2018-12-19T10:41:18.025Z,4.60
2018-12-19T10:43:45.557Z,4.50
2018-12-19T10:46:13.059Z,4.50
2018-12-19T10:48:40.619Z,4.60
2018-12-19T10:51:08.125Z,4.80
2018-12-19T10:53:35.782Z,4.80
2018-12-19T10:56:03.290Z,4.70
2018-12-19T10:58:30.826Z,4.90
2018-12-19T11:01:00.011Z,4.70
2018-12-19T11:03:27.557Z,4.90
2018-12-19T11:05:55.121Z,4.90
2018-12-19T11:08:22.850Z,4.80
2018-12-19T11:10:50.406Z,4.70
2018-12-19T11:13:21.215Z,4.90
2018-12-19T11:15:48.766Z,5.00
2018-12-19T11:18:16.336Z,5.10
2018-12-19T11:20:44.127Z,5.20
2018-12-19T11:23:12.009Z,5.20
2018-12-19T11:25:39.976Z,5.30
2018-12-19T11:28:08.136Z,5.20
2018-12-19T11:30:36.429Z,5.30
2018-12-19T11:33:03.984Z,5.30
2018-12-19T11:35:31.492Z,5.20
2018-12-19T11:37:58.996Z,5.20
2018-12-19T11:40:26.550Z,5.20
2018-12-19T11:42:54.047Z,5.20
2018-12-19T11:45:21.549Z,5.20
2018-12-19T11:47:49.109Z,5.10
2018-12-19T11:50:16.711Z,5.00
2018-12-19T11:52:44.269Z,5.10
2018-12-19T11:55:11.814Z,5.20
2018-12-19T11:57:39.420Z,5.30
2018-12-19T12:00:08.077Z,5.30
2018-12-19T12:02:35.574Z,5.30
2018-12-19T12:05:03.858Z,5.30
2018-12-19T12:07:31.436Z,5.30
2018-12-19T12:09:58.988Z,5.30
2018-12-19T12:12:26.527Z,5.50
2018-12-19T12:14:54.019Z,5.50
2018-12-19T12:17:21.577Z,5.60
2018-12-19T12:19:49.082Z,5.50
2018-12-19T12:22:16.621Z,5.60
2018-12-19T12:24:44.404Z,5.70
2018-12-19T12:27:11.939Z,5.70
2018-12-19T12:29:39.441Z,5.70
2018-12-19T12:32:06.989Z,5.70
2018-12-19T12:34:34.490Z,5.90
2018-12-19T12:37:01.988Z,5.80
2018-12-19T12:39:29.526Z,5.90
2018-12-19T12:41:57.021Z,5.70
2018-12-19T12:44:24.557Z,5.70
2018-12-19T12:46:52.057Z,5.60
2018-12-19T12:49:19.594Z,5.60
2018-12-19T12:51:47.102Z,5.60
2018-12-19T12:54:14.637Z,5.60
2018-12-19T12:56:42.146Z,5.60
2018-12-19T12:59:09.708Z,5.70
2018-12-19T13:01:37.213Z,5.80
2018-12-19T13:04:04.766Z,5.80
2018-12-19T13:06:32.312Z,5.70
2018-12-19T13:08:59.837Z,5.70
2018-12-19T13:11:27.382Z,5.90
2018-12-19T13:13:54.889Z,5.90
2018-12-19T13:16:22.429Z,5.80
2018-12-19T13:18:49.933Z,5.70
2018-12-19T13:21:17.469Z,5.70
2018-12-19T13:23:44.963Z,5.60
2018-12-19T13:26:12.715Z,5.60
2018-12-19T13:28:40.213Z,5.60
2018-12-19T13:31:07.756Z,5.70
2018-12-19T13:33:35.253Z,5.80
2018-12-19T13:36:02.784Z,5.80
2018-12-19T13:38:30.331Z,6.00
2018-12-19T13:40:57.838Z,6.20
2018-12-19T13:43:25.379Z,6.20
2018-12-19T13:45:52.951Z,6.20
2018-12-19T13:48:20.504Z,6.30
2018-12-19T13:50:48.009Z,6.40
2018-12-19T13:53:15.550Z,6.40
2018-12-19T13:55:43.067Z,6.40
2018-12-19T13:58:10.615Z,6.20
2018-12-19T14:00:38.112Z,6.20
2018-12-19T14:03:05.622Z,6.10
2018-12-19T14:05:33.164Z,5.90
2018-12-19T14:08:00.686Z,5.90
2018-12-19T14:10:28.236Z,5.80
2018-12-19T14:12:55.754Z,5.80
2018-12-19T14:15:23.300Z,5.90
2018-12-19T14:17:50.809Z,5.80
2018-12-19T14:20:18.359Z,5.80
2018-12-19T14:22:45.869Z,6.00
2018-12-19T14:25:13.413Z,5.80
2018-12-19T14:27:40.920Z,6.20
2018-12-19T14:30:09.210Z,6.20
2018-12-19T14:32:36.800Z,6.20
2018-12-19T14:35:04.502Z,6.40
2018-12-19T14:37:32.018Z,6.50
2018-12-19T14:39:59.572Z,6.60
2018-12-19T14:42:27.077Z,6.60
2018-12-19T14:44:54.685Z,6.60
2018-12-19T14:47:22.229Z,6.50
2018-12-19T14:49:49.744Z,6.30
2018-12-19T14:52:17.291Z,6.60
2018-12-19T14:54:44.834Z,6.50
2018-12-19T14:57:12.387Z,6.40
2018-12-19T14:59:40.034Z,6.50
2018-12-19T15:02:07.537Z,6.60
2018-12-19T15:04:35.081Z,6.70
2018-12-19T15:07:02.590Z,6.70
2018-12-19T15:09:30.129Z,6.60
2018-12-19T15:11:57.736Z,6.60
2018-12-19T15:14:25.326Z,6.50
2018-12-19T15:16:52.844Z,6.40
2018-12-19T15:19:20.389Z,6.40
2018-12-19T15:21:47.893Z,6.30
2018-12-19T15:24:15.444Z,6.20
2018-12-19T15:26:43.027Z,6.10
2018-12-19T15:29:10.538Z,6.00
2018-12-19T15:31:38.076Z,6.10
2018-12-19T15:34:05.585Z,6.30
2018-12-19T15:36:33.503Z,6.30
2018-12-19T15:39:01.246Z,6.30
2018-12-19T15:41:28.791Z,6.40
2018-12-19T15:43:56.299Z,6.60
2018-12-19T15:46:23.925Z,6.30
2018-12-19T15:48:51.458Z,6.30
2018-12-19T15:51:19.009Z,6.20
2018-12-19T15:53:46.514Z,6.30
2018-12-19T15:56:14.137Z,6.40
2018-12-19T15:58:41.646Z,6.20
2018-12-19T16:01:09.185Z,6.20
2018-12-19T16:03:36.730Z,6.20
2018-12-19T16:06:04.226Z,6.10
2018-12-19T16:08:31.766Z,6.10
2018-12-19T16:10:59.497Z,6.20
2018-12-19T16:13:27.149Z,6.30
2018-12-19T16:15:54.825Z,6.00
2018-12-19T16:18:23.063Z,5.90
2018-12-19T16:20:50.578Z,5.90
2018-12-19T16:23:18.126Z,5.90
2018-12-19T16:25:45.862Z,5.90
2018-12-19T16:28:13.428Z,5.90
2018-12-19T16:30:40.936Z,6.20
2018-12-19T16:33:08.440Z,6.30
2018-12-19T16:35:35.982Z,6.20
2018-12-19T16:38:03.502Z,6.20
2018-12-19T16:40:31.041Z,6.00
2018-12-19T16:42:58.586Z,5.90
2018-12-19T16:45:26.127Z,6.10
2018-12-19T16:47:53.758Z,6.20
2018-12-19T16:50:21.263Z,6.10
2018-12-19T16:52:48.809Z,6.20
2018-12-19T16:55:16.313Z,6.10
2018-12-19T16:57:43.857Z,5.90
2018-12-19T17:00:11.430Z,5.90
2018-12-19T17:02:38.974Z,5.70
2018-12-19T17:05:06.753Z,5.60
2018-12-19T17:07:34.293Z,5.50
2018-12-19T17:10:01.826Z,5.40
2018-12-19T17:12:30.683Z,5.40
2018-12-19T17:14:58.183Z,5.40
2018-12-19T17:17:25.957Z,5.50
2018-12-19T17:19:53.466Z,5.90
2018-12-19T17:22:21.073Z,6.20
2018-12-19T17:24:48.570Z,5.90
2018-12-19T17:27:16.114Z,5.80
2018-12-19T17:29:43.615Z,5.90
2018-12-19T17:32:11.333Z,5.90
2018-12-19T17:34:38.869Z,5.70
2018-12-19T17:37:06.410Z,5.70
2018-12-19T17:39:33.956Z,5.60
2018-12-19T17:42:01.469Z,5.80
2018-12-19T17:44:28.990Z,5.70
2018-12-19T17:46:56.537Z,5.70
2018-12-19T17:49:24.177Z,5.90
2018-12-19T17:51:51.683Z,5.70
2018-12-19T17:54:19.243Z,5.50
2018-12-19T17:56:46.747Z,5.30
2018-12-19T17:59:14.293Z,5.20
2018-12-19T18:01:41.797Z,5.20
2018-12-19T18:04:09.342Z,5.20
2018-12-19T18:06:36.860Z,5.30
2018-12-19T18:09:06.077Z,5.10
2018-12-19T18:11:33.625Z,5.10
2018-12-19T18:14:01.206Z,5.10
2018-12-19T18:16:28.749Z,5.20
2018-12-19T18:18:56.260Z,5.20
2018-12-19T18:21:23.789Z,5.20
2018-12-19T18:23:51.322Z,5.20
2018-12-19T18:26:18.905Z,5.30
2018-12-19T18:28:46.434Z,5.20
2018-12-19T18:31:14.241Z,5.10
2018-12-19T18:33:41.773Z,5.00
2018-12-19T18:36:09.341Z,5.10
2018-12-19T18:38:36.872Z,5.00
2018-12-19T18:41:04.440Z,4.90
2018-12-19T18:43:31.961Z,4.90
2018-12-19T18:45:59.461Z,4.90
2018-12-19T18:48:26.989Z,5.40
2018-12-19T18:50:54.494Z,5.30
2018-12-19T18:53:21.994Z,5.30
2018-12-19T18:55:49.611Z,5.30
2018-12-19T18:58:17.113Z,5.10
2018-12-19T19:00:46.319Z,5.20
2018-12-19T19:03:15.143Z,5.30
2018-12-19T19:05:42.959Z,5.10
2018-12-19T19:08:10.507Z,5.10
2018-12-19T19:10:38.406Z,5.10
2018-12-19T19:13:05.913Z,5.10
2018-12-19T19:15:33.437Z,5.30
2018-12-19T19:18:00.949Z,5.50
2018-12-19T19:20:28.492Z,5.30
2018-12-19T19:22:55.988Z,5.20
2018-12-19T19:25:23.513Z,5.00
2018-12-19T19:27:51.026Z,5.20
2018-12-19T19:30:18.630Z,5.00
2018-12-19T19:32:46.130Z,5.20
2018-12-19T19:35:13.659Z,5.00
2018-12-19T19:37:41.162Z,5.10
2018-12-19T19:40:09.158Z,5.10
2018-12-19T19:42:36.742Z,5.00
2018-12-19T19:45:05.218Z,5.10
2018-12-19T19:47:32.725Z,5.30
2018-12-19T19:50:00.272Z,5.50
2018-12-19T19:52:27.794Z,5.70
2018-12-19T19:54:55.358Z,5.70
2018-12-19T19:57:22.875Z,5.70
2018-12-19T19:59:50.380Z,5.60
2018-12-19T20:02:17.908Z,5.50
2018-12-19T20:04:45.421Z,5.40
2018-12-19T20:07:12.951Z,5.30
2018-12-19T20:09:40.455Z,5.40
2018-12-19T20:12:08.002Z,5.40
2018-12-19T20:14:35.514Z,5.50
2018-12-19T20:17:03.042Z,5.50
2018-12-19T20:19:30.585Z,5.30
2018-12-19T20:21:58.124Z,5.20
2018-12-19T20:24:26.637Z,5.10
2018-12-19T20:26:54.168Z,5.00
2018-12-19T20:29:21.665Z,4.90
2018-12-19T20:31:49.190Z,4.80
2018-12-19T20:34:16.692Z,4.80
2018-12-19T20:36:44.341Z,4.80
2018-12-19T20:39:11.857Z,4.80
2018-12-19T20:41:39.501Z,4.90
2018-12-19T20:44:07.014Z,5.00
2018-12-19T20:46:34.573Z,5.00
2018-12-19T20:49:02.081Z,5.20
2018-12-19T20:51:29.636Z,5.50
2018-12-19T20:53:57.153Z,5.60
2018-12-19T20:56:24.798Z,5.40
2018-12-19T20:58:52.445Z,5.40
2018-12-19T21:01:19.958Z,5.50
2018-12-19T21:03:47.494Z,5.30
2018-12-19T21:06:15.086Z,5.20
2018-12-19T21:08:42.610Z,5.10
2018-12-19T21:11:10.109Z,5.00
2018-12-19T21:13:37.631Z,5.00
2018-12-19T21:16:05.133Z,5.10
2018-12-19T21:18:38.356Z,5.30
2018-12-19T21:21:05.852Z,5.30
2018-12-19T21:23:33.480Z,5.20
2018-12-19T21:26:00.982Z,5.00
2018-12-19T21:28:28.506Z,5.10
2018-12-19T21:30:56.010Z,5.10
2018-12-19T21:33:23.540Z,5.20
2018-12-19T21:35:51.281Z,5.30
2018-12-19T21:38:18.903Z,5.30
2018-12-19T21:40:46.413Z,5.20
2018-12-19T21:43:13.988Z,5.00
2018-12-19T21:45:41.587Z,4.90
2018-12-19T21:48:09.122Z,4.80
2018-12-19T21:50:36.634Z,4.60
2018-12-19T21:53:04.206Z,4.60
2018-12-19T21:55:31.791Z,4.60
2018-12-19T21:57:59.451Z,4.70
2018-12-19T22:00:27.619Z,4.70
2018-12-19T22:02:55.146Z,4.80
2018-12-19T22:05:22.648Z,4.80
2018-12-19T22:07:50.178Z,4.70
2018-12-19T22:10:17.672Z,4.80
2018-12-19T22:12:45.210Z,4.80
2018-12-19T22:15:12.733Z,4.90
2018-12-19T22:17:46.114Z,5.00
2018-12-19T22:20:13.633Z,4.90
2018-12-19T22:22:41.226Z,4.80
2018-12-19T22:25:08.758Z,4.80
2018-12-19T22:27:36.515Z,4.90
2018-12-19T22:30:06.834Z,4.90
2018-12-19T22:32:34.501Z,4.90
2018-12-19T22:35:02.141Z,4.80
2018-12-19T22:37:29.701Z,4.90
2018-12-19T22:39:57.437Z,4.80
2018-12-19T22:42:25.082Z,4.60
2018-12-19T22:44:52.609Z,4.60
2018-12-19T22:47:21.645Z,4.60
2018-12-19T22:49:49.358Z,4.50
2018-12-19T22:52:16.873Z,4.40
2018-12-19T22:54:44.425Z,4.30
2018-12-19T22:57:12.035Z,4.30
2018-12-19T22:59:39.623Z,4.40
2018-12-19T23:02:12.872Z,4.40
2018-12-19T23:04:47.493Z,4.70
2018-12-19T23:07:15.504Z,4.50
2018-12-19T23:09:43.192Z,4.30
2018-12-19T23:12:10.731Z,4.40
2018-12-19T23:14:38.442Z,4.50
2018-12-19T23:20:07.494Z,4.50
2018-12-19T23:22:35.110Z,4.50
2018-12-19T23:25:03.078Z,4.50
2018-12-19T23:27:31.254Z,4.60
2018-12-19T23:29:58.934Z,4.80
2018-12-19T23:32:28.361Z,4.90
2018-12-19T23:34:56.294Z,4.70
2018-12-19T23:37:23.835Z,5.00
2018-12-19T23:39:51.461Z,4.90
2018-12-19T23:42:19.089Z,4.70
2018-12-19T23:44:46.593Z,4.60
2018-12-19T23:47:14.122Z,4.50
2018-12-19T23:49:41.810Z,4.50
2018-12-19T23:52:09.383Z,4.60
2018-12-19T23:54:36.891Z,4.50
2018-12-19T23:57:04.419Z,4.50
2018-12-19T23:59:32.147Z,4.50
